sensor_id;sensor_type;location;lat;lon;timestamp;pressure;altitude;pressure_sealevel;temperature;humidity
85545;BME280;75982;52.834;13.846;2024-03-08T00:00:37;101940.53;;;-1.21;78.37
85545;BME280;75982;52.834;13.846;2024-03-08T00:03:04;101936.25;;;-1.23;77.17
85545;BME280;75982;52.834;13.846;2024-03-08T00:05:30;101941.28;;;-1.29;77.21
85545;BME280;75982;52.834;13.846;2024-03-08T00:07:57;101938.69;;;-1.31;76.75
85545;BME280;75982;52.834;13.846;2024-03-08T00:10:24;101937.44;;;-1.54;78.40
85545;BME280;75982;52.834;13.846;2024-03-08T00:12:54;101935.91;;;-1.43;78.60
85545;BME280;75982;52.834;13.846;2024-03-08T00:15:22;101941.13;;;-1.40;78.08
85545;BME280;75982;52.834;13.846;2024-03-08T00:17:48;101941.84;;;-1.46;78.96
85545;BME280;75982;52.834;13.846;2024-03-08T00:20:16;101931.59;;;-1.47;78.03
85545;BME280;75982;52.834;13.846;2024-03-08T00:22:42;101938.34;;;-1.52;78.15
85545;BME280;75982;52.834;13.846;2024-03-08T00:25:09;101933.97;;;-1.58;77.93
85545;BME280;75982;52.834;13.846;2024-03-08T00:27:37;101939.88;;;-1.63;77.44
85545;BME280;75982;52.834;13.846;2024-03-08T00:30:05;101936.31;;;-1.71;78.84
85545;BME280;75982;52.834;13.846;2024-03-08T00:32:33;101934.59;;;-1.72;78.98
85545;BME280;75982;52.834;13.846;2024-03-08T00:35:00;101939.53;;;-1.83;80.19
85545;BME280;75982;52.834;13.846;2024-03-08T00:37:27;101936.19;;;-1.77;79.36
85545;BME280;75982;52.834;13.846;2024-03-08T00:39:53;101933.63;;;-1.77;78.54
85545;BME280;75982;52.834;13.846;2024-03-08T00:42:20;101936.19;;;-1.77;78.59
85545;BME280;75982;52.834;13.846;2024-03-08T00:44:47;101940.38;;;-1.81;78.47
85545;BME280;75982;52.834;13.846;2024-03-08T00:47:14;101931.81;;;-1.84;78.50
85545;BME280;75982;52.834;13.846;2024-03-08T00:49:42;101926.59;;;-1.90;78.38
85545;BME280;75982;52.834;13.846;2024-03-08T00:52:11;101929.88;;;-1.98;79.64
85545;BME280;75982;52.834;13.846;2024-03-08T00:54:38;101923.97;;;-1.97;79.22
85545;BME280;75982;52.834;13.846;2024-03-08T00:57:05;101929.88;;;-1.98;79.06
85545;BME280;75982;52.834;13.846;2024-03-08T00:59:32;101923.88;;;-2.00;79.60
85545;BME280;75982;52.834;13.846;2024-03-08T01:01:59;101915.28;;;-2.05;79.67
85545;BME280;75982;52.834;13.846;2024-03-08T01:04:25;101910.22;;;-2.00;79.79
85545;BME280;75982;52.834;13.846;2024-03-08T01:06:54;101918.00;;;-1.96;79.10
85545;BME280;75982;52.834;13.846;2024-03-08T01:09:20;101916.88;;;-2.10;80.00
85545;BME280;75982;52.834;13.846;2024-03-08T01:11:47;101911.09;;;-2.01;79.18
85545;BME280;75982;52.834;13.846;2024-03-08T01:14:14;101909.31;;;-2.05;79.29
85545;BME280;75982;52.834;13.846;2024-03-08T01:16:40;101911.81;;;-2.08;79.92
85545;BME280;75982;52.834;13.846;2024-03-08T01:19:07;101910.91;;;-2.12;80.65
85545;BME280;75982;52.834;13.846;2024-03-08T01:21:34;101915.06;;;-2.15;80.88
85545;BME280;75982;52.834;13.846;2024-03-08T01:24:02;101912.59;;;-2.12;79.28
85545;BME280;75982;52.834;13.846;2024-03-08T01:26:29;101907.53;;;-2.09;79.10
85545;BME280;75982;52.834;13.846;2024-03-08T01:28:56;101900.75;;;-2.09;78.31
85545;BME280;75982;52.834;13.846;2024-03-08T01:31:22;101909.59;;;-2.35;80.79
85545;BME280;75982;52.834;13.846;2024-03-08T01:33:49;101905.13;;;-2.45;81.71
85545;BME280;75982;52.834;13.846;2024-03-08T01:36:16;101903.63;;;-2.35;81.07
85545;BME280;75982;52.834;13.846;2024-03-08T01:38:42;101907.81;;;-2.39;81.71
85545;BME280;75982;52.834;13.846;2024-03-08T01:41:10;101899.50;;;-2.30;79.64
85545;BME280;75982;52.834;13.846;2024-03-08T01:43:37;101896.09;;;-2.29;80.73
85545;BME280;75982;52.834;13.846;2024-03-08T01:46:05;101895.31;;;-2.25;80.37
85545;BME280;75982;52.834;13.846;2024-03-08T01:48:32;101887.50;;;-2.34;80.79
85545;BME280;75982;52.834;13.846;2024-03-08T01:50:59;101890.97;;;-2.31;80.71
85545;BME280;75982;52.834;13.846;2024-03-08T01:53:26;101884.19;;;-2.29;80.23
85545;BME280;75982;52.834;13.846;2024-03-08T01:55:56;101881.47;;;-2.36;79.81
85545;BME280;75982;52.834;13.846;2024-03-08T01:58:24;101885.66;;;-2.40;79.24
85545;BME280;75982;52.834;13.846;2024-03-08T02:00:53;101877.81;;;-2.49;79.66
85545;BME280;75982;52.834;13.846;2024-03-08T02:03:21;101877.66;;;-2.58;81.73
85545;BME280;75982;52.834;13.846;2024-03-08T02:05:48;101874.44;;;-2.50;79.98
85545;BME280;75982;52.834;13.846;2024-03-08T02:08:16;101870.78;;;-2.62;81.25
85545;BME280;75982;52.834;13.846;2024-03-08T02:10:44;101869.00;;;-2.66;80.81
85545;BME280;75982;52.834;13.846;2024-03-08T02:13:11;101863.03;;;-2.67;81.70
85545;BME280;75982;52.834;13.846;2024-03-08T02:15:55;101860.31;;;-2.74;83.17
85545;BME280;75982;52.834;13.846;2024-03-08T02:18:22;101861.84;;;-2.84;84.92
85545;BME280;75982;52.834;13.846;2024-03-08T02:20:51;101861.06;;;-2.80;85.65
85545;BME280;75982;52.834;13.846;2024-03-08T02:23:18;101854.13;;;-2.85;84.82
85545;BME280;75982;52.834;13.846;2024-03-08T02:25:45;101859.28;;;-2.84;86.33
85545;BME280;75982;52.834;13.846;2024-03-08T02:28:12;101853.97;;;-2.93;87.40
85545;BME280;75982;52.834;13.846;2024-03-08T02:30:39;101847.63;;;-2.71;85.17
85545;BME280;75982;52.834;13.846;2024-03-08T02:33:06;101840.09;;;-2.64;82.97
85545;BME280;75982;52.834;13.846;2024-03-08T02:35:33;101844.34;;;-2.66;82.66
85545;BME280;75982;52.834;13.846;2024-03-08T02:38:01;101842.47;;;-2.74;82.67
85545;BME280;75982;52.834;13.846;2024-03-08T02:40:28;101849.22;;;-2.76;83.01
85545;BME280;75982;52.834;13.846;2024-03-08T02:42:55;101847.44;;;-2.80;83.51
85545;BME280;75982;52.834;13.846;2024-03-08T02:45:21;101846.44;;;-2.87;83.20
85545;BME280;75982;52.834;13.846;2024-03-08T02:47:48;101839.50;;;-2.94;84.72
85545;BME280;75982;52.834;13.846;2024-03-08T02:50:15;101846.38;;;-2.92;84.36
85545;BME280;75982;52.834;13.846;2024-03-08T02:52:42;101833.47;;;-2.98;84.64
85545;BME280;75982;52.834;13.846;2024-03-08T02:55:10;101845.25;;;-3.04;87.31
85545;BME280;75982;52.834;13.846;2024-03-08T02:57:39;101846.81;;;-3.11;88.27
85545;BME280;75982;52.834;13.846;2024-03-08T03:00:07;101845.44;;;-2.95;87.38
85545;BME280;75982;52.834;13.846;2024-03-08T03:02:34;101845.63;;;-2.86;84.97
85545;BME280;75982;52.834;13.846;2024-03-08T03:05:00;101842.28;;;-2.83;84.36
85545;BME280;75982;52.834;13.846;2024-03-08T03:07:27;101837.19;;;-2.82;82.99
85545;BME280;75982;52.834;13.846;2024-03-08T03:09:54;101838.00;;;-2.84;82.82
85545;BME280;75982;52.834;13.846;2024-03-08T03:12:22;101834.53;;;-2.88;81.47
85545;BME280;75982;52.834;13.846;2024-03-08T03:14:49;101831.06;;;-2.92;81.88
85545;BME280;75982;52.834;13.846;2024-03-08T03:17:16;101834.28;;;-3.00;82.74
85545;BME280;75982;52.834;13.846;2024-03-08T03:19:43;101832.38;;;-3.10;83.79
85545;BME280;75982;52.834;13.846;2024-03-08T03:22:12;101832.78;;;-3.31;87.38
85545;BME280;75982;52.834;13.846;2024-03-08T03:24:39;101829.50;;;-3.25;87.11
85545;BME280;75982;52.834;13.846;2024-03-08T03:27:06;101831.34;;;-3.18;86.89
85545;BME280;75982;52.834;13.846;2024-03-08T03:29:34;101829.47;;;-3.27;87.62
85545;BME280;75982;52.834;13.846;2024-03-08T03:32:00;101823.50;;;-3.27;88.12
85545;BME280;75982;52.834;13.846;2024-03-08T03:34:27;101822.63;;;-3.28;89.14
85545;BME280;75982;52.834;13.846;2024-03-08T03:36:54;101832.81;;;-3.29;89.43
85545;BME280;75982;52.834;13.846;2024-03-08T03:39:20;101830.22;;;-3.31;89.99
85545;BME280;75982;52.834;13.846;2024-03-08T03:41:47;101832.06;;;-3.24;89.41
85545;BME280;75982;52.834;13.846;2024-03-08T03:44:14;101831.16;;;-3.27;88.49
85545;BME280;75982;52.834;13.846;2024-03-08T03:46:43;101827.13;;;-3.18;88.31
85545;BME280;75982;52.834;13.846;2024-03-08T03:49:09;101838.03;;;-3.23;88.86
85545;BME280;75982;52.834;13.846;2024-03-08T03:51:36;101831.03;;;-3.33;90.28
85545;BME280;75982;52.834;13.846;2024-03-08T03:54:03;101829.47;;;-3.27;89.81
85545;BME280;75982;52.834;13.846;2024-03-08T03:56:32;101825.34;;;-3.22;88.73
85545;BME280;75982;52.834;13.846;2024-03-08T03:58:58;101830.97;;;-3.35;89.77
85545;BME280;75982;52.834;13.846;2024-03-08T04:01:25;101824.84;;;-3.43;90.72
85545;BME280;75982;52.834;13.846;2024-03-08T04:03:53;101824.13;;;-3.37;90.13
85545;BME280;75982;52.834;13.846;2024-03-08T04:06:20;101828.41;;;-3.36;89.72
85545;BME280;75982;52.834;13.846;2024-03-08T04:08:46;101825.94;;;-3.32;89.62
85545;BME280;75982;52.834;13.846;2024-03-08T04:11:13;101829.41;;;-3.28;87.88
85545;BME280;75982;52.834;13.846;2024-03-08T04:13:40;101824.03;;;-3.42;88.62
85545;BME280;75982;52.834;13.846;2024-03-08T04:16:06;101826.63;;;-3.39;90.60
85545;BME280;75982;52.834;13.846;2024-03-08T04:18:33;101825.09;;;-3.32;90.01
85545;BME280;75982;52.834;13.846;2024-03-08T04:21:02;101820.84;;;-3.32;89.49
85545;BME280;75982;52.834;13.846;2024-03-08T04:23:29;101822.50;;;-3.34;89.31
85545;BME280;75982;52.834;13.846;2024-03-08T04:25:55;101814.66;;;-3.43;90.14
85545;BME280;75982;52.834;13.846;2024-03-08T04:28:22;101818.94;;;-3.42;91.04
85545;BME280;75982;52.834;13.846;2024-03-08T04:30:48;101817.53;;;-3.28;88.97
85545;BME280;75982;52.834;13.846;2024-03-08T04:33:15;101820.72;;;-3.38;89.31
85545;BME280;75982;52.834;13.846;2024-03-08T04:35:42;101812.91;;;-3.46;91.06
85545;BME280;75982;52.834;13.846;2024-03-08T04:38:10;101816.53;;;-3.34;89.93
85545;BME280;75982;52.834;13.846;2024-03-08T04:40:36;101808.91;;;-3.34;89.42
85545;BME280;75982;52.834;13.846;2024-03-08T04:43:03;101810.59;;;-3.35;89.78
85545;BME280;75982;52.834;13.846;2024-03-08T04:45:30;101804.72;;;-3.31;90.75
85545;BME280;75982;52.834;13.846;2024-03-08T04:47:57;101801.34;;;-3.30;90.34
85545;BME280;75982;52.834;13.846;2024-03-08T04:50:24;101805.38;;;-3.41;90.75
85545;BME280;75982;52.834;13.846;2024-03-08T04:52:50;101803.75;;;-3.37;91.28
85545;BME280;75982;52.834;13.846;2024-03-08T04:55:18;101809.81;;;-3.32;90.26
85545;BME280;75982;52.834;13.846;2024-03-08T04:57:45;101802.97;;;-3.33;89.74
85545;BME280;75982;52.834;13.846;2024-03-08T05:00:12;101810.47;;;-3.40;92.72
85545;BME280;75982;52.834;13.846;2024-03-08T05:02:40;101813.25;;;-3.30;92.26
85545;BME280;75982;52.834;13.846;2024-03-08T05:05:07;101809.75;;;-3.34;92.13
85545;BME280;75982;52.834;13.846;2024-03-08T05:07:34;101808.78;;;-3.41;92.27
85545;BME280;75982;52.834;13.846;2024-03-08T05:10:00;101802.06;;;-3.35;92.22
85545;BME280;75982;52.834;13.846;2024-03-08T05:12:28;101807.31;;;-3.29;92.97
85545;BME280;75982;52.834;13.846;2024-03-08T05:14:55;101804.56;;;-3.38;92.83
85545;BME280;75982;52.834;13.846;2024-03-08T05:17:22;101805.38;;;-3.41;92.50
85545;BME280;75982;52.834;13.846;2024-03-08T05:19:48;101807.00;;;-3.45;91.26
85545;BME280;75982;52.834;13.846;2024-03-08T05:22:15;101811.38;;;-3.37;91.52
85545;BME280;75982;52.834;13.846;2024-03-08T05:24:42;101804.63;;;-3.35;90.11
85545;BME280;75982;52.834;13.846;2024-03-08T05:27:09;101800.16;;;-3.46;89.44
85545;BME280;75982;52.834;13.846;2024-03-08T05:29:37;101800.38;;;-3.36;89.43
85545;BME280;75982;52.834;13.846;2024-03-08T05:32:04;101797.69;;;-3.43;90.64
85545;BME280;75982;52.834;13.846;2024-03-08T05:34:30;101796.84;;;-3.42;91.42
85545;BME280;75982;52.834;13.846;2024-03-08T05:36:57;101791.88;;;-3.35;93.30
85545;BME280;75982;52.834;13.846;2024-03-08T05:39:24;101795.50;;;-3.26;92.56
85545;BME280;75982;52.834;13.846;2024-03-08T05:41:51;101798.97;;;-3.22;91.74
85545;BME280;75982;52.834;13.846;2024-03-08T05:44:17;101802.50;;;-3.17;91.54
85545;BME280;75982;52.834;13.846;2024-03-08T05:46:46;101793.06;;;-3.20;91.77
85545;BME280;75982;52.834;13.846;2024-03-08T05:49:12;101795.56;;;-3.23;92.29
85545;BME280;75982;52.834;13.846;2024-03-08T05:51:40;101793.16;;;-3.15;93.08
85545;BME280;75982;52.834;13.846;2024-03-08T05:54:08;101793.88;;;-3.21;92.76
85545;BME280;75982;52.834;13.846;2024-03-08T05:56:39;101786.31;;;-3.18;93.31
85545;BME280;75982;52.834;13.846;2024-03-08T05:59:06;101794.16;;;-3.09;93.20
85545;BME280;75982;52.834;13.846;2024-03-08T06:01:33;101787.41;;;-3.07;91.73
85545;BME280;75982;52.834;13.846;2024-03-08T06:04:01;101786.53;;;-3.06;91.39
85545;BME280;75982;52.834;13.846;2024-03-08T06:06:27;101791.53;;;-3.12;92.21
85545;BME280;75982;52.834;13.846;2024-03-08T06:08:54;101795.06;;;-3.05;93.24
85545;BME280;75982;52.834;13.846;2024-03-08T06:11:21;101799.38;;;-3.03;92.86
85545;BME280;75982;52.834;13.846;2024-03-08T06:13:48;101797.81;;;-2.96;92.73
85545;BME280;75982;52.834;13.846;2024-03-08T06:16:15;101801.34;;;-2.89;91.96
85545;BME280;75982;52.834;13.846;2024-03-08T06:18:41;101795.31;;;-2.93;93.07
85545;BME280;75982;52.834;13.846;2024-03-08T06:21:10;101798.25;;;-2.73;91.55
85545;BME280;75982;52.834;13.846;2024-03-08T06:23:37;101801.75;;;-2.68;91.89
85545;BME280;75982;52.834;13.846;2024-03-08T06:26:04;101799.47;;;-2.55;91.73
85545;BME280;75982;52.834;13.846;2024-03-08T06:28:30;101801.16;;;-2.55;91.91
85545;BME280;75982;52.834;13.846;2024-03-08T06:30:57;101797.91;;;-2.47;91.46
85545;BME280;75982;52.834;13.846;2024-03-08T06:33:24;101792.97;;;-2.36;91.71
85545;BME280;75982;52.834;13.846;2024-03-08T06:35:51;101799.16;;;-2.23;91.82
85545;BME280;75982;52.834;13.846;2024-03-08T06:38:19;101803.50;;;-2.18;90.90
85545;BME280;75982;52.834;13.846;2024-03-08T06:40:46;101798.53;;;-2.10;90.31
85545;BME280;75982;52.834;13.846;2024-03-08T06:43:12;101805.41;;;-2.06;91.16
85545;BME280;75982;52.834;13.846;2024-03-08T06:45:39;101800.47;;;-1.97;90.35
85545;BME280;75982;52.834;13.846;2024-03-08T06:48:06;101795.38;;;-1.94;90.62
85545;BME280;75982;52.834;13.846;2024-03-08T06:50:33;101802.31;;;-1.87;90.88
85545;BME280;75982;52.834;13.846;2024-03-08T06:53:00;101799.94;;;-1.75;90.44
85545;BME280;75982;52.834;13.846;2024-03-08T06:55:28;101803.56;;;-1.61;89.35
85545;BME280;75982;52.834;13.846;2024-03-08T06:57:54;101798.53;;;-1.56;89.99
85545;BME280;75982;52.834;13.846;2024-03-08T07:00:21;101804.69;;;-1.42;89.01
85545;BME280;75982;52.834;13.846;2024-03-08T07:02:48;101809.06;;;-1.32;89.04
85545;BME280;75982;52.834;13.846;2024-03-08T07:05:15;101810.94;;;-1.20;88.45
85545;BME280;75982;52.834;13.846;2024-03-08T07:07:41;101809.28;;;-1.18;88.40
85545;BME280;75982;52.834;13.846;2024-03-08T07:10:08;101809.47;;;-1.02;87.65
85545;BME280;75982;52.834;13.846;2024-03-08T07:12:36;101808.03;;;-0.80;87.38
85545;BME280;75982;52.834;13.846;2024-03-08T07:15:04;101815.75;;;-0.75;87.29
85545;BME280;75982;52.834;13.846;2024-03-08T07:17:31;101819.19;;;-0.76;87.29
85545;BME280;75982;52.834;13.846;2024-03-08T07:19:58;101814.19;;;-0.63;86.41
85545;BME280;75982;52.834;13.846;2024-03-08T07:22:25;101814.34;;;-0.51;85.22
85545;BME280;75982;52.834;13.846;2024-03-08T07:24:51;101807.56;;;-0.44;86.11
85545;BME280;75982;52.834;13.846;2024-03-08T07:27:18;101814.59;;;-0.25;84.57
85545;BME280;75982;52.834;13.846;2024-03-08T07:29:46;101812.03;;;-0.22;85.57
85545;BME280;75982;52.834;13.846;2024-03-08T07:32:13;101808.75;;;-0.09;85.14
85545;BME280;75982;52.834;13.846;2024-03-08T07:34:39;101799.56;;;0.18;84.09
85545;BME280;75982;52.834;13.846;2024-03-08T07:37:06;101811.53;;;0.20;83.69
85545;BME280;75982;52.834;13.846;2024-03-08T07:39:33;101814.03;;;0.10;83.28
85545;BME280;75982;52.834;13.846;2024-03-08T07:42:00;101806.41;;;0.17;81.80
85545;BME280;75982;52.834;13.846;2024-03-08T07:44:26;101793.81;;;0.49;82.45
85545;BME280;75982;52.834;13.846;2024-03-08T07:46:55;101792.09;;;0.48;82.17
85545;BME280;75982;52.834;13.846;2024-03-08T07:49:23;101789.56;;;0.59;81.29
85545;BME280;75982;52.834;13.846;2024-03-08T07:51:51;101787.16;;;0.92;81.89
85545;BME280;75982;52.834;13.846;2024-03-08T07:54:17;101784.63;;;0.96;80.31
85545;BME280;75982;52.834;13.846;2024-03-08T07:56:44;101788.09;;;1.05;80.23
85545;BME280;75982;52.834;13.846;2024-03-08T07:59:11;101783.78;;;1.02;79.77
85545;BME280;75982;52.834;13.846;2024-03-08T08:01:37;101782.94;;;1.00;78.38
85545;BME280;75982;52.834;13.846;2024-03-08T08:04:05;101784.75;;;1.42;79.24
85545;BME280;75982;52.834;13.846;2024-03-08T08:06:32;101782.19;;;1.37;79.00
85545;BME280;75982;52.834;13.846;2024-03-08T08:08:59;101785.63;;;1.39;77.79
85545;BME280;75982;52.834;13.846;2024-03-08T08:11:26;101777.91;;;1.41;77.17
85545;BME280;75982;52.834;13.846;2024-03-08T08:13:52;101781.34;;;1.48;76.80
85545;BME280;75982;52.834;13.846;2024-03-08T08:16:19;101777.09;;;1.78;76.63
85545;BME280;75982;52.834;13.846;2024-03-08T08:18:46;101772.78;;;1.53;75.99
85545;BME280;75982;52.834;13.846;2024-03-08T08:21:14;101770.25;;;1.80;76.41
85545;BME280;75982;52.834;13.846;2024-03-08T08:23:40;101777.09;;;2.25;75.48
85545;BME280;75982;52.834;13.846;2024-03-08T08:26:07;101771.91;;;2.43;74.55
85545;BME280;75982;52.834;13.846;2024-03-08T08:28:34;101767.66;;;2.18;73.54
85545;BME280;75982;52.834;13.846;2024-03-08T08:31:01;101762.47;;;2.49;73.68
85545;BME280;75982;52.834;13.846;2024-03-08T08:33:27;101760.69;;;2.72;73.00
85545;BME280;75982;52.834;13.846;2024-03-08T08:35:54;101760.69;;;2.70;71.83
85545;BME280;75982;52.834;13.846;2024-03-08T08:38:22;101749.34;;;3.12;71.83
85545;BME280;75982;52.834;13.846;2024-03-08T08:40:48;101754.63;;;2.86;71.32
85545;BME280;75982;52.834;13.846;2024-03-08T08:43:16;101746.75;;;3.12;71.18
85545;BME280;75982;52.834;13.846;2024-03-08T08:45:43;101755.38;;;3.04;70.22
85545;BME280;75982;52.834;13.846;2024-03-08T08:48:10;101747.50;;;3.35;70.52
85545;BME280;75982;52.834;13.846;2024-03-08T08:50:37;101753.44;;;3.45;70.77
85545;BME280;75982;52.834;13.846;2024-03-08T08:53:04;101743.84;;;3.64;69.57
85545;BME280;75982;52.834;13.846;2024-03-08T08:55:32;101748.34;;;3.36;70.58
85545;BME280;75982;52.834;13.846;2024-03-08T08:57:59;101738.81;;;3.47;69.49
85545;BME280;75982;52.834;13.846;2024-03-08T09:00:26;101738.53;;;3.82;68.46
85545;BME280;75982;52.834;13.846;2024-03-08T09:02:52;101737.00;;;3.61;68.88
85545;BME280;75982;52.834;13.846;2024-03-08T09:05:19;101735.88;;;3.89;68.37
85545;BME280;75982;52.834;13.846;2024-03-08T09:07:46;101734.47;;;4.48;67.04
85545;BME280;75982;52.834;13.846;2024-03-08T09:10:13;101724.31;;;4.33;66.71
85545;BME280;75982;52.834;13.846;2024-03-08T09:12:45;101726.88;;;4.33;66.60
85545;BME280;75982;52.834;13.846;2024-03-08T09:15:14;101718.28;;;4.31;65.10
85545;BME280;75982;52.834;13.846;2024-03-08T09:17:40;101716.53;;;4.34;67.09
85545;BME280;75982;52.834;13.846;2024-03-08T09:20:10;101709.50;;;4.46;65.45
85545;BME280;75982;52.834;13.846;2024-03-08T09:22:37;101712.63;;;4.73;64.38
85545;BME280;75982;52.834;13.846;2024-03-08T09:25:04;101709.03;;;4.87;63.35
85545;BME280;75982;52.834;13.846;2024-03-08T09:27:31;101714.81;;;5.04;64.35
85545;BME280;75982;52.834;13.846;2024-03-08T09:29:59;101711.69;;;4.82;64.44
85545;BME280;75982;52.834;13.846;2024-03-08T09:32:26;101711.00;;;4.65;63.92
85545;BME280;75982;52.834;13.846;2024-03-08T09:34:52;101707.31;;;4.87;63.55
85545;BME280;75982;52.834;13.846;2024-03-08T09:37:19;101705.41;;;5.00;63.37
85545;BME280;75982;52.834;13.846;2024-03-08T09:39:46;101704.59;;;4.96;62.16
85545;BME280;75982;52.834;13.846;2024-03-08T09:42:12;101698.19;;;5.21;62.93
85545;BME280;75982;52.834;13.846;2024-03-08T09:44:39;101696.06;;;5.49;63.13
85545;BME280;75982;52.834;13.846;2024-03-08T09:47:09;101694.03;;;5.11;61.47
85545;BME280;75982;52.834;13.846;2024-03-08T09:49:36;101691.91;;;5.39;62.34
85545;BME280;75982;52.834;13.846;2024-03-08T09:52:05;101693.03;;;5.75;62.79
85545;BME280;75982;52.834;13.846;2024-03-08T09:54:32;101688.34;;;5.46;61.88
85545;BME280;75982;52.834;13.846;2024-03-08T09:56:58;101685.72;;;5.48;61.61
85545;BME280;75982;52.834;13.846;2024-03-08T09:59:25;101685.72;;;5.48;62.09
85545;BME280;75982;52.834;13.846;2024-03-08T10:01:52;101687.38;;;5.53;61.28
85545;BME280;75982;52.834;13.846;2024-03-08T10:04:20;101684.28;;;5.82;61.18
85545;BME280;75982;52.834;13.846;2024-03-08T10:06:46;101677.50;;;5.76;60.74
85545;BME280;75982;52.834;13.846;2024-03-08T10:09:13;101672.09;;;5.40;61.15
85545;BME280;75982;52.834;13.846;2024-03-08T10:11:40;101663.53;;;5.87;60.64
85545;BME280;75982;52.834;13.846;2024-03-08T10:14:07;101659.97;;;5.94;60.02
85545;BME280;75982;52.834;13.846;2024-03-08T10:16:34;101660.88;;;5.93;60.18
85545;BME280;75982;52.834;13.846;2024-03-08T10:19:01;101655.16;;;5.72;60.15
85545;BME280;75982;52.834;13.846;2024-03-08T10:21:29;101653.97;;;5.92;59.35
85545;BME280;75982;52.834;13.846;2024-03-08T10:23:56;101657.34;;;6.40;59.76
85545;BME280;75982;52.834;13.846;2024-03-08T10:26:22;101657.34;;;6.40;59.14
85545;BME280;75982;52.834;13.846;2024-03-08T10:28:50;101646.47;;;5.76;59.16
85545;BME280;75982;52.834;13.846;2024-03-08T10:31:18;101644.16;;;6.09;60.33
85545;BME280;75982;52.834;13.846;2024-03-08T10:33:45;101641.75;;;6.43;58.01
85545;BME280;75982;52.834;13.846;2024-03-08T10:36:14;101634.56;;;6.57;58.95
85545;BME280;75982;52.834;13.846;2024-03-08T10:38:43;101631.97;;;6.95;58.79
85545;BME280;75982;52.834;13.846;2024-03-08T10:41:10;101635.91;;;7.11;56.83
85545;BME280;75982;52.834;13.846;2024-03-08T10:43:50;101624.25;;;6.54;57.05
85545;BME280;75982;52.834;13.846;2024-03-08T10:46:38;101626.44;;;7.10;57.79
85545;BME280;75982;52.834;13.846;2024-03-08T10:49:14;101625.34;;;7.20;55.44
85545;BME280;75982;52.834;13.846;2024-03-08T10:51:42;101621.88;;;6.45;54.75
85545;BME280;75982;52.834;13.846;2024-03-08T10:54:11;101622.25;;;6.68;54.27
85545;BME280;75982;52.834;13.846;2024-03-08T10:56:39;101629.13;;;7.43;55.49
85545;BME280;75982;52.834;13.846;2024-03-08T10:59:06;101618.47;;;7.53;55.06
85545;BME280;75982;52.834;13.846;2024-03-08T11:01:33;101616.72;;;7.54;53.59
85545;BME280;75982;52.834;13.846;2024-03-08T11:04:04;101618.94;;;7.35;54.25
85545;BME280;75982;52.834;13.846;2024-03-08T11:06:41;101602.88;;;7.55;53.87
85545;BME280;75982;52.834;13.846;2024-03-08T11:09:10;101599.00;;;7.02;54.63
85545;BME280;75982;52.834;13.846;2024-03-08T11:11:39;101602.69;;;6.92;53.70
85545;BME280;75982;52.834;13.846;2024-03-08T11:14:06;101592.69;;;7.13;54.06
85545;BME280;75982;52.834;13.846;2024-03-08T11:16:53;101593.19;;;7.28;52.89
85545;BME280;75982;52.834;13.846;2024-03-08T11:19:24;101589.16;;;7.50;53.47
85545;BME280;75982;52.834;13.846;2024-03-08T11:22:00;101575.13;;;7.89;52.39
85545;BME280;75982;52.834;13.846;2024-03-08T11:24:27;101576.28;;;7.47;52.31
85545;BME280;75982;52.834;13.846;2024-03-08T11:26:58;101572.34;;;7.64;52.93
85545;BME280;75982;52.834;13.846;2024-03-08T11:29:35;101571.59;;;7.59;54.21
85545;BME280;75982;52.834;13.846;2024-03-08T11:32:10;101560.44;;;8.19;52.11
85545;BME280;75982;52.834;13.846;2024-03-08T11:34:37;101559.16;;;8.03;50.43
85545;BME280;75982;52.834;13.846;2024-03-08T11:37:11;101545.78;;;7.86;49.79
85545;BME280;75982;52.834;13.846;2024-03-08T11:39:39;101547.19;;;7.97;51.28
85545;BME280;75982;52.834;13.846;2024-03-08T11:42:08;101554.16;;;7.97;49.35
85545;BME280;75982;52.834;13.846;2024-03-08T11:44:35;101542.63;;;7.74;48.73
85545;BME280;75982;52.834;13.846;2024-03-08T11:47:01;101533.22;;;8.01;50.90
85545;BME280;75982;52.834;13.846;2024-03-08T11:49:28;101526.50;;;8.23;49.72
85545;BME280;75982;52.834;13.846;2024-03-08T11:51:55;101524.69;;;8.29;49.34
85545;BME280;75982;52.834;13.846;2024-03-08T11:54:21;101535.91;;;8.29;48.42
85545;BME280;75982;52.834;13.846;2024-03-08T11:56:51;101530.00;;;8.53;50.25
85545;BME280;75982;52.834;13.846;2024-03-08T11:59:19;101530.44;;;8.66;48.70
85545;BME280;75982;52.834;13.846;2024-03-08T12:02:01;101512.41;;;8.34;46.66
85545;BME280;75982;52.834;13.846;2024-03-08T12:04:28;101512.94;;;8.15;46.09
85545;BME280;75982;52.834;13.846;2024-03-08T12:06:54;101524.00;;;8.50;47.32
85545;BME280;75982;52.834;13.846;2024-03-08T12:09:21;101515.75;;;8.91;46.67
85545;BME280;75982;52.834;13.846;2024-03-08T12:11:48;101518.81;;;8.78;48.47
85545;BME280;75982;52.834;13.846;2024-03-08T12:14:15;101514.56;;;8.75;47.45
85545;BME280;75982;52.834;13.846;2024-03-08T12:16:43;101506.41;;;8.86;45.85
85545;BME280;75982;52.834;13.846;2024-03-08T12:19:09;101505.66;;;8.56;46.26
85545;BME280;75982;52.834;13.846;2024-03-08T12:21:36;101505.31;;;8.66;47.85
85545;BME280;75982;52.834;13.846;2024-03-08T12:24:04;101502.16;;;9.09;50.83
85545;BME280;75982;52.834;13.846;2024-03-08T12:26:31;101500.91;;;9.21;46.47
85545;BME280;75982;52.834;13.846;2024-03-08T12:29:16;101493.50;;;8.56;46.93
85545;BME280;75982;52.834;13.846;2024-03-08T12:31:45;101487.34;;;8.59;46.06
85545;BME280;75982;52.834;13.846;2024-03-08T12:34:12;101487.47;;;9.08;46.74
85545;BME280;75982;52.834;13.846;2024-03-08T12:36:44;101488.16;;;9.13;45.76
85545;BME280;75982;52.834;13.846;2024-03-08T12:39:11;101484.66;;;9.39;46.93
85545;BME280;75982;52.834;13.846;2024-03-08T12:41:39;101476.53;;;9.72;47.35
85545;BME280;75982;52.834;13.846;2024-03-08T12:44:06;101477.63;;;9.41;45.44